Time;durP1;ratioP1;P1;durP2;ratioP2;P2;SDS_P1;SDS_P2;PMS_P1;PMS_P2;Temp;Humidity;BMP_temperature;BMP_pressure;BME280_temperature;BME280_humidity;BME280_pressure;Samples;Min_cycle;Max_cycle;Signal;HPM_P1;HPM_P2
2021/04/25 00:00:58;;;;;;;6.57;3.50;;;6.80;69.70;;;;;;5053170;28;20021;-86
2021/04/25 00:03:24;;;;;;;5.32;3.22;;;6.80;69.90;;;;;;5051840;28;20511;-86
2021/04/25 00:05:50;;;;;;;9.80;3.60;;;6.80;70.00;;;;;;5051721;28;20035;-84
2021/04/25 00:08:15;;;;;;;10.23;4.38;;;6.70;70.20;;;;;;5053126;28;20025;-86
2021/04/25 00:10:42;;;;;;;5.85;3.45;;;6.70;70.50;;;;;;5051878;28;20389;-86
2021/04/25 00:13:08;;;;;;;9.13;4.35;;;6.80;70.60;;;;;;5051684;28;20091;-86
2021/04/25 00:15:34;;;;;;;8.65;4.22;;;6.80;71.00;;;;;;5058081;28;20083;-86
2021/04/25 00:17:59;;;;;;;7.30;3.70;;;6.80;71.10;;;;;;5073278;28;20492;-86
2021/04/25 00:20:25;;;;;;;6.15;3.97;;;6.80;71.40;;;;;;5071389;28;20041;-86
2021/04/25 00:22:50;;;;;;;7.10;3.38;;;6.90;71.60;;;;;;5071897;28;20067;-86
2021/04/25 00:25:17;;;;;;;7.50;4.03;;;6.90;71.80;;;;;;5079189;28;20491;-85
2021/04/25 00:27:43;;;;;;;10.13;4.97;;;7.00;72.00;;;;;;5079947;28;20495;-86
2021/04/25 00:30:12;;;;;;;8.90;4.63;;;7.10;72.80;;;;;;5079885;28;20452;-85
2021/04/25 00:32:37;;;;;;;7.55;4.78;;;7.10;73.10;;;;;;5078084;28;20025;-84
2021/04/25 00:35:05;;;;;;;7.43;4.53;;;7.10;73.30;;;;;;5078304;28;20017;-86
2021/04/25 00:37:30;;;;;;;7.18;3.65;;;7.10;73.60;;;;;;5078227;28;20158;-85
2021/04/25 00:39:56;;;;;;;8.95;4.18;;;7.10;73.70;;;;;;5078070;28;20108;-86
2021/04/25 00:42:21;;;;;;;9.45;4.10;;;7.10;74.00;;;;;;5078001;28;20083;-85
2021/04/25 00:44:47;;;;;;;9.48;4.72;;;7.10;74.40;;;;;;5079564;28;20077;-85
2021/04/25 00:47:13;;;;;;;8.32;3.90;;;7.10;74.90;;;;;;5078110;28;20024;-85
2021/04/25 00:49:39;;;;;;;6.93;4.43;;;7.10;75.20;;;;;;5078170;28;20025;-85
2021/04/25 00:52:07;;;;;;;10.15;4.32;;;7.10;75.50;;;;;;5079081;28;20102;-86
2021/04/25 00:54:32;;;;;;;9.48;5.15;;;7.10;75.60;;;;;;5077936;28;20021;-85
2021/04/25 00:56:59;;;;;;;9.55;4.53;;;7.10;76.20;;;;;;5079297;28;20464;-86
2021/04/25 00:59:26;;;;;;;6.18;3.65;;;7.10;76.50;;;;;;5078078;28;20028;-86
2021/04/25 01:01:51;;;;;;;7.82;4.35;;;7.10;76.40;;;;;;5078035;28;20036;-86
2021/04/25 01:04:17;;;;;;;9.45;4.13;;;7.10;76.70;;;;;;5079215;28;20025;-85
2021/04/25 01:06:42;;;;;;;8.40;3.90;;;7.10;77.20;;;;;;5077897;28;20040;-86
2021/04/25 01:09:08;;;;;;;9.00;4.50;;;7.20;77.00;;;;;;5079131;28;20028;-86
2021/04/25 01:11:34;;;;;;;10.20;4.88;;;7.20;77.00;;;;;;5077900;28;20024;-86
2021/04/25 01:13:59;;;;;;;8.13;4.40;;;7.30;77.30;;;;;;5077900;28;20494;-85
2021/04/25 01:16:25;;;;;;;6.75;3.92;;;7.20;77.10;;;;;;5066901;28;20017;-86
2021/04/25 01:18:50;;;;;;;8.68;4.40;;;7.20;77.10;;;;;;5057923;28;20021;-87
2021/04/25 01:21:16;;;;;;;6.45;3.50;;;7.30;77.20;;;;;;5057938;28;20370;-85
2021/04/25 01:23:41;;;;;;;9.07;4.60;;;7.20;77.30;;;;;;5057383;28;20021;-86
2021/04/25 01:26:07;;;;;;;10.88;4.45;;;7.20;77.60;;;;;;5059153;28;20503;-86
2021/04/25 01:28:33;;;;;;;8.35;4.38;;;7.10;77.80;;;;;;5059236;28;20108;-86
2021/04/25 01:30:58;;;;;;;7.07;3.67;;;7.00;78.00;;;;;;5059033;28;20024;-86
2021/04/25 01:33:25;;;;;;;9.73;5.00;;;7.00;78.10;;;;;;5057759;28;20028;-86
2021/04/25 01:35:52;;;;;;;7.80;3.97;;;7.00;78.40;;;;;;5056753;28;20024;-86
2021/04/25 01:38:18;;;;;;;6.55;4.07;;;7.00;78.60;;;;;;5055884;28;20027;-86
2021/04/25 01:40:43;;;;;;;7.93;4.07;;;7.10;78.30;;;;;;5055302;28;20021;-86
2021/04/25 01:43:11;;;;;;;6.57;4.03;;;7.10;78.10;;;;;;5055656;28;20385;-86
2021/04/25 01:45:36;;;;;;;8.38;3.50;;;7.00;78.10;;;;;;5054523;28;20572;-86
2021/04/25 01:48:04;;;;;;;6.03;3.53;;;6.90;78.10;;;;;;5054454;28;20115;-85
2021/04/25 01:50:31;;;;;;;4.55;2.97;;;6.90;78.20;;;;;;5055740;28;20071;-86
2021/04/25 01:52:58;;;;;;;6.22;3.30;;;6.80;78.10;;;;;;5053945;28;20496;-86
2021/04/25 01:55:25;;;;;;;6.10;3.38;;;6.80;78.20;;;;;;5054367;28;20056;-86
2021/04/25 01:57:52;;;;;;;4.95;3.20;;;6.90;78.20;;;;;;5054310;28;20021;-86
2021/04/25 02:00:30;;;;;;;4.32;2.90;;;6.90;78.10;;;;;;5055413;28;20024;-85
2021/04/25 02:02:56;;;;;;;7.35;3.30;;;6.90;78.10;;;;;;5054057;28;20438;-85
2021/04/25 02:05:23;;;;;;;6.18;3.20;;;6.90;78.00;;;;;;5055177;28;20075;-86
2021/04/25 02:07:48;;;;;;;6.97;3.05;;;6.90;78.00;;;;;;5053681;28;20052;-86
2021/04/25 02:10:15;;;;;;;7.05;3.55;;;6.90;78.00;;;;;;5054947;28;20485;-87
2021/04/25 02:12:40;;;;;;;4.30;2.60;;;6.80;78.20;;;;;;5053843;28;20060;-86
2021/04/25 02:15:07;;;;;;;8.00;3.83;;;6.70;78.40;;;;;;5056127;28;20021;-85
2021/04/25 02:17:33;;;;;;;6.80;3.63;;;6.60;78.60;;;;;;5073981;28;20032;-84
2021/04/25 02:19:59;;;;;;;5.78;3.20;;;6.60;78.60;;;;;;5073600;28;20157;-86
2021/04/25 02:22:25;;;;;;;5.32;2.75;;;6.60;78.60;;;;;;5073751;28;20039;-85
2021/04/25 02:24:50;;;;;;;5.05;3.20;;;6.60;78.50;;;;;;5073519;28;20033;-85
2021/04/25 02:27:16;;;;;;;7.00;3.88;;;6.50;78.70;;;;;;5075044;28;20101;-85
2021/04/25 02:29:42;;;;;;;6.35;3.53;;;6.50;79.00;;;;;;5073552;28;20365;-84
2021/04/25 02:32:07;;;;;;;5.88;3.20;;;6.50;79.00;;;;;;5073516;28;20032;-86
2021/04/25 02:34:33;;;;;;;5.30;2.60;;;6.50;79.00;;;;;;5073287;28;20028;-84
2021/04/25 02:36:58;;;;;;;5.72;3.15;;;6.40;78.90;;;;;;5073332;28;20468;-83
2021/04/25 02:39:24;;;;;;;7.85;3.28;;;6.40;78.90;;;;;;5073247;28;20033;-85
2021/04/25 02:41:49;;;;;;;7.03;3.30;;;6.40;79.00;;;;;;5074549;28;20032;-84
2021/04/25 02:44:15;;;;;;;6.75;2.67;;;6.40;78.80;;;;;;5073166;28;20074;-84
2021/04/25 02:46:41;;;;;;;5.22;2.67;;;6.40;78.80;;;;;;5073849;28;20434;-83
2021/04/25 02:49:06;;;;;;;6.18;2.58;;;6.30;78.80;;;;;;5073618;28;20472;-83
2021/04/25 02:51:32;;;;;;;6.95;2.72;;;6.30;78.90;;;;;;5072999;28;20020;-85
2021/04/25 02:53:57;;;;;;;8.40;3.58;;;6.30;79.20;;;;;;5072753;28;20044;-84
2021/04/25 02:56:23;;;;;;;7.53;3.08;;;6.20;79.20;;;;;;5073051;28;20052;-85
2021/04/25 02:58:48;;;;;;;6.40;3.40;;;6.20;79.50;;;;;;5072824;28;20432;-85
2021/04/25 03:01:14;;;;;;;4.93;2.33;;;6.20;79.60;;;;;;5073084;28;20564;-87
2021/04/25 03:03:39;;;;;;;7.03;2.65;;;6.10;79.60;;;;;;5072607;28;20025;-86
2021/04/25 03:06:05;;;;;;;8.00;2.50;;;6.10;79.70;;;;;;5074210;28;20468;-83
2021/04/25 03:08:30;;;;;;;4.60;2.00;;;6.00;79.70;;;;;;5072824;28;20495;-83
2021/04/25 03:10:56;;;;;;;4.45;2.45;;;6.00;79.80;;;;;;5073776;28;20496;-85
2021/04/25 03:13:21;;;;;;;5.72;3.15;;;6.00;80.00;;;;;;5072626;28;20438;-84
2021/04/25 03:15:47;;;;;;;5.75;2.47;;;5.90;80.30;;;;;;5065600;28;20021;-86
2021/04/25 03:18:12;;;;;;;5.35;2.58;;;5.90;80.40;;;;;;5053860;28;20031;-85
2021/04/25 03:20:38;;;;;;;6.50;2.38;;;5.90;80.40;;;;;;5052360;28;20049;-84
2021/04/25 03:23:04;;;;;;;6.22;2.53;;;6.00;80.40;;;;;;5052572;28;20027;-85
2021/04/25 03:25:30;;;;;;;4.65;2.05;;;6.00;80.10;;;;;;5053567;28;20033;-85
2021/04/25 03:27:55;;;;;;;4.60;1.80;;;6.00;79.80;;;;;;5052404;28;20032;-85
2021/04/25 03:30:21;;;;;;;4.85;2.40;;;6.10;79.50;;;;;;5052506;28;20025;-85
2021/04/25 03:32:46;;;;;;;7.10;2.47;;;6.10;79.40;;;;;;5052119;28;20599;-84
2021/04/25 03:35:15;;;;;;;4.47;1.95;;;6.10;79.20;;;;;;5053526;28;20500;-85
2021/04/25 03:37:41;;;;;;;5.95;1.90;;;6.20;79.20;;;;;;5053496;28;20070;-85
2021/04/25 03:40:10;;;;;;;5.63;2.08;;;6.20;79.10;;;;;;5052151;28;20023;-86
2021/04/25 03:42:35;;;;;;;4.88;1.80;;;6.30;78.90;;;;;;5053466;28;20506;-86
2021/04/25 03:45:01;;;;;;;3.83;1.70;;;6.30;78.70;;;;;;5052171;28;20028;-86
2021/04/25 03:47:27;;;;;;;3.95;2.00;;;6.30;78.60;;;;;;5052202;28;20032;-85
2021/04/25 03:49:52;;;;;;;4.72;1.90;;;6.30;78.60;;;;;;5052219;28;20095;-86
2021/04/25 03:52:18;;;;;;;6.20;2.00;;;6.30;78.40;;;;;;5052141;28;20025;-85
2021/04/25 03:54:43;;;;;;;5.63;2.88;;;6.40;78.40;;;;;;5051946;28;20381;-85
2021/04/25 03:57:09;;;;;;;7.43;2.20;;;6.30;78.40;;;;;;5052072;28;20070;-84
2021/04/25 03:59:35;;;;;;;5.10;2.13;;;6.30;78.60;;;;;;5052872;28;20404;-85
2021/04/25 04:02:00;;;;;;;4.68;2.15;;;6.30;78.60;;;;;;5051124;28;20112;-85
2021/04/25 04:04:26;;;;;;;4.68;1.98;;;6.30;78.40;;;;;;5051335;28;20057;-86
2021/04/25 04:06:52;;;;;;;4.40;1.92;;;6.40;78.50;;;;;;5052419;28;20031;-86
2021/04/25 04:09:18;;;;;;;3.17;1.60;;;6.40;78.50;;;;;;5053324;28;20385;-86
2021/04/25 04:11:44;;;;;;;3.72;1.65;;;6.50;78.30;;;;;;5051779;28;20033;-86
2021/04/25 04:14:10;;;;;;;3.78;1.63;;;6.50;78.20;;;;;;5057970;28;20500;-87
2021/04/25 04:16:35;;;;;;;4.53;1.60;;;6.50;78.00;;;;;;5074327;28;20048;-86
2021/04/25 04:19:01;;;;;;;5.38;2.00;;;6.60;78.00;;;;;;5079906;28;20017;-85
2021/04/25 04:21:27;;;;;;;4.22;2.08;;;6.60;77.80;;;;;;5044247;28;20492;-86
2021/04/25 04:23:52;;;;;;;4.38;2.10;;;6.60;77.80;;;;;;5053025;28;20035;-86
2021/04/25 04:26:18;;;;;;;6.50;2.63;;;6.60;77.90;;;;;;5034951;28;20025;-85
2021/04/25 04:28:43;;;;;;;7.18;2.50;;;6.60;77.80;;;;;;5035050;28;20032;-85
2021/04/25 04:31:09;;;;;;;3.58;1.92;;;6.50;77.80;;;;;;5052590;28;20021;-86
2021/04/25 04:33:36;;;;;;;4.03;2.20;;;6.50;77.80;;;;;;5035002;28;20420;-86
2021/04/25 04:36:05;;;;;;;6.25;2.10;;;6.50;77.80;;;;;;5052823;28;20053;-86
2021/04/25 04:38:31;;;;;;;6.18;2.05;;;6.50;77.70;;;;;;5052867;28;20495;-85
2021/04/25 04:40:57;;;;;;;3.83;1.70;;;6.50;77.70;;;;;;5052613;28;20096;-86
2021/04/25 04:43:23;;;;;;;3.08;1.30;;;6.60;77.70;;;;;;5034985;28;20393;-86
2021/04/25 04:45:49;;;;;;;4.18;2.00;;;6.50;77.70;;;;;;5034626;28;20480;-86
2021/04/25 04:48:14;;;;;;;6.10;2.03;;;6.50;77.90;;;;;;5052797;28;20036;-85
2021/04/25 04:50:40;;;;;;;7.32;1.92;;;6.60;77.90;;;;;;5034875;28;20029;-84
2021/04/25 04:53:05;;;;;;;6.95;2.75;;;6.60;77.90;;;;;;5034749;28;20033;-83
2021/04/25 04:55:31;;;;;;;6.57;2.50;;;6.50;78.00;;;;;;5052490;28;20024;-84
2021/04/25 04:57:57;;;;;;;7.45;2.83;;;6.50;78.10;;;;;;5034631;28;20037;-85
2021/04/25 05:00:22;;;;;;;5.75;2.30;;;6.50;77.90;;;;;;5052476;28;20310;-85
2021/04/25 05:02:47;;;;;;;4.95;2.13;;;6.50;77.90;;;;;;5034731;28;20029;-84
2021/04/25 05:05:13;;;;;;;5.20;1.75;;;6.60;78.00;;;;;;5052407;28;20082;-83
2021/04/25 05:07:39;;;;;;;7.10;2.20;;;6.60;77.80;;;;;;5034682;28;20061;-86
2021/04/25 05:10:06;;;;;;;5.63;1.65;;;6.70;77.60;;;;;;5034715;28;20485;-84
2021/04/25 05:12:32;;;;;;;5.00;1.58;;;6.70;77.40;;;;;;5055638;28;20021;-86
2021/04/25 05:14:57;;;;;;;9.45;2.15;;;6.70;77.30;;;;;;5054940;28;20083;-84
2021/04/25 05:17:23;;;;;;;5.60;1.70;;;6.70;77.20;;;;;;5046960;28;20093;-86
2021/04/25 05:19:48;;;;;;;3.92;1.60;;;6.70;77.10;;;;;;5068966;28;20051;-84
2021/04/25 05:22:14;;;;;;;4.72;1.75;;;6.80;77.10;;;;;;5094730;28;20365;-86
2021/04/25 05:24:39;;;;;;;4.57;1.48;;;6.80;77.10;;;;;;5095060;28;20020;-87
2021/04/25 05:27:05;;;;;;;4.43;1.38;;;6.80;77.10;;;;;;5094934;28;20429;-86
2021/04/25 05:29:31;;;;;;;5.47;1.20;;;6.80;77.00;;;;;;5096190;28;20044;-84
2021/04/25 05:31:56;;;;;;;4.57;0.98;;;6.90;77.00;;;;;;5096097;28;20494;-85
2021/04/25 05:34:22;;;;;;;5.60;1.40;;;6.90;76.70;;;;;;5096390;28;20024;-87
2021/04/25 05:36:47;;;;;;;6.60;1.35;;;7.00;76.60;;;;;;5094851;28;20478;-85
2021/04/25 05:39:13;;;;;;;6.30;1.48;;;7.00;76.40;;;;;;5094861;28;20097;-85
2021/04/25 05:41:39;;;;;;;3.67;1.10;;;7.00;76.30;;;;;;5094249;28;20491;-83
2021/04/25 05:44:05;;;;;;;4.00;1.55;;;7.00;76.30;;;;;;5094467;28;20031;-87
2021/04/25 05:46:33;;;;;;;3.47;1.15;;;7.00;76.20;;;;;;5069472;28;20028;-86
2021/04/25 05:48:59;;;;;;;7.03;1.60;;;7.00;75.80;;;;;;5064963;28;20028;-84
2021/04/25 05:51:24;;;;;;;7.40;2.42;;;7.00;75.30;;;;;;5062754;28;20032;-86
2021/04/25 05:53:52;;;;;;;4.43;1.00;;;6.90;75.20;;;;;;5065921;28;20017;-86
2021/04/25 05:56:17;;;;;;;5.43;1.17;;;7.00;75.50;;;;;;5063100;28;20012;-87
2021/04/25 05:58:43;;;;;;;4.80;1.50;;;7.00;75.60;;;;;;5062438;28;20074;-85
2021/04/25 06:01:08;;;;;;;4.35;1.92;;;7.10;75.20;;;;;;5062715;28;20016;-86
2021/04/25 06:03:34;;;;;;;5.28;1.67;;;7.10;75.10;;;;;;5065061;28;20497;-84
2021/04/25 06:06:00;;;;;;;8.73;1.65;;;7.10;74.80;;;;;;5062278;28;20021;-87
2021/04/25 06:08:25;;;;;;;3.90;1.35;;;7.10;75.50;;;;;;5064647;28;20029;-86
2021/04/25 06:10:51;;;;;;;8.00;1.88;;;7.00;75.20;;;;;;5063738;28;20434;-85
2021/04/25 06:13:16;;;;;;;5.20;1.50;;;7.00;75.10;;;;;;5066530;28;20017;-86
2021/04/25 06:15:42;;;;;;;6.15;1.10;;;7.10;75.20;;;;;;5062697;28;20013;-86
2021/04/25 06:18:07;;;;;;;2.70;1.10;;;7.10;75.20;;;;;;5062571;28;20017;-85
2021/04/25 06:20:33;;;;;;;5.65;1.15;;;7.20;75.10;;;;;;5063259;28;20049;-85
2021/04/25 06:22:59;;;;;;;7.28;1.88;;;7.20;75.10;;;;;;5063973;28;20024;-85
2021/04/25 06:25:24;;;;;;;5.20;1.55;;;7.30;74.30;;;;;;5063611;28;20116;-85
2021/04/25 06:27:50;;;;;;;6.47;1.25;;;7.30;74.50;;;;;;5063396;28;20024;-85
2021/04/25 06:30:18;;;;;;;10.70;1.92;;;7.30;74.60;;;;;;5061465;28;20097;-85
2021/04/25 06:32:45;;;;;;;9.73;2.60;;;7.40;74.40;;;;;;5064123;28;20013;-85
2021/04/25 06:35:13;;;;;;;8.93;2.00;;;7.40;73.60;;;;;;5063049;28;20013;-84
2021/04/25 06:37:40;;;;;;;6.30;1.42;;;7.40;73.10;;;;;;5062190;28;20478;-85
2021/04/25 06:40:07;;;;;;;4.90;1.52;;;7.40;73.10;;;;;;5059372;28;20064;-86
2021/04/25 06:42:32;;;;;;;5.78;1.90;;;7.40;73.00;;;;;;5054036;28;20035;-84
2021/04/25 06:44:58;;;;;;;6.50;1.88;;;7.40;72.80;;;;;;5054784;28;20031;-85
2021/04/25 06:47:23;;;;;;;6.07;2.00;;;7.30;72.70;;;;;;5060666;28;20024;-84
2021/04/25 06:49:49;;;;;;;6.63;2.00;;;7.30;72.00;;;;;;5063351;28;20458;-85
2021/04/25 06:52:15;;;;;;;12.20;2.10;;;7.30;72.10;;;;;;5064748;28;20024;-85
2021/04/25 06:54:40;;;;;;;4.28;1.40;;;7.30;71.70;;;;;;5063881;28;20541;-86
2021/04/25 06:57:06;;;;;;;4.93;1.27;;;7.40;71.90;;;;;;5064196;28;20043;-85
2021/04/25 06:59:32;;;;;;;7.57;1.58;;;7.50;72.00;;;;;;5063260;28;20107;-83
2021/04/25 07:01:58;;;;;;;5.72;1.80;;;7.60;72.50;;;;;;5063152;28;20029;-86
2021/04/25 07:04:24;;;;;;;5.72;1.52;;;7.60;72.20;;;;;;5063288;28;20021;-85
2021/04/25 07:06:50;;;;;;;5.95;1.40;;;7.70;71.70;;;;;;5061496;28;20025;-85
2021/04/25 07:09:16;;;;;;;3.70;1.65;;;7.70;71.60;;;;;;5062355;28;20016;-86
2021/04/25 07:11:42;;;;;;;8.13;1.50;;;7.70;71.60;;;;;;5064405;28;20036;-86
2021/04/25 07:14:07;;;;;;;6.15;1.10;;;7.80;71.70;;;;;;5061273;28;20028;-85
2021/04/25 07:16:33;;;;;;;8.95;2.10;;;7.90;71.60;;;;;;5063244;28;20033;-84
2021/04/25 07:18:58;;;;;;;6.72;1.42;;;8.00;71.70;;;;;;5061941;28;20386;-86
2021/04/25 07:21:24;;;;;;;4.43;1.23;;;8.10;70.70;;;;;;5080630;28;20062;-86
2021/04/25 07:23:49;;;;;;;7.18;1.58;;;8.10;70.50;;;;;;5073300;28;20476;-85
2021/04/25 07:26:15;;;;;;;5.05;1.17;;;8.20;70.30;;;;;;5079298;28;20024;-84
2021/04/25 07:28:41;;;;;;;4.82;1.40;;;8.30;70.40;;;;;;5080477;28;20021;-85
2021/04/25 07:31:08;;;;;;;3.92;1.25;;;8.30;70.20;;;;;;5080258;28;20103;-87
2021/04/25 07:33:34;;;;;;;5.60;1.40;;;8.30;70.20;;;;;;5053798;28;20025;-86
2021/04/25 07:36:00;;;;;;;4.82;1.60;;;8.30;70.00;;;;;;5073230;28;20391;-83
2021/04/25 07:38:26;;;;;;;4.95;1.33;;;8.30;70.00;;;;;;5073129;28;20029;-87
2021/04/25 07:40:53;;;;;;;4.47;1.27;;;8.40;69.90;;;;;;5073383;28;20403;-84
2021/04/25 07:43:18;;;;;;;8.25;1.52;;;8.50;69.70;;;;;;5059618;28;20084;-85
2021/04/25 07:45:44;;;;;;;5.13;1.20;;;8.50;69.10;;;;;;5073184;28;20028;-85
2021/04/25 07:48:10;;;;;;;6.10;1.58;;;8.60;68.40;;;;;;5073220;28;20490;-85
2021/04/25 07:50:35;;;;;;;7.45;1.48;;;8.60;68.20;;;;;;5055376;28;20416;-84
2021/04/25 07:53:01;;;;;;;6.85;1.00;;;8.60;68.00;;;;;;5073161;28;20025;-86
2021/04/25 07:55:28;;;;;;;5.18;1.20;;;8.50;68.10;;;;;;5055251;28;20021;-84
2021/04/25 07:57:54;;;;;;;8.60;1.40;;;8.50;67.10;;;;;;5054852;28;20483;-83
2021/04/25 08:00:20;;;;;;;5.07;1.00;;;8.50;67.60;;;;;;5045242;28;20032;-85
2021/04/25 08:02:45;;;;;;;3.33;0.70;;;8.50;68.10;;;;;;5051938;28;20020;-85
2021/04/25 08:05:12;;;;;;;4.75;0.82;;;8.60;68.10;;;;;;5048562;28;20025;-87
2021/04/25 08:07:37;;;;;;;5.65;1.10;;;8.70;68.20;;;;;;5054019;28;20089;-83
2021/04/25 08:10:05;;;;;;;7.55;1.15;;;8.80;67.70;;;;;;5063647;28;20543;-87
2021/04/25 08:12:30;;;;;;;3.80;1.25;;;8.80;67.30;;;;;;5048315;28;20024;-86
2021/04/25 08:14:56;;;;;;;3.88;1.00;;;8.90;67.60;;;;;;5059656;28;20017;-87
2021/04/25 08:17:21;;;;;;;3.60;0.85;;;9.00;67.60;;;;;;5053602;28;20090;-87
2021/04/25 08:19:47;;;;;;;4.53;0.82;;;9.10;67.50;;;;;;5052921;28;20041;-86
2021/04/25 08:22:13;;;;;;;5.25;0.80;;;9.30;67.70;;;;;;5088671;28;20024;-85
2021/04/25 08:24:38;;;;;;;6.13;1.35;;;9.40;67.70;;;;;;5089993;28;20071;-86
2021/04/25 08:27:04;;;;;;;3.70;1.05;;;9.50;65.50;;;;;;5089839;28;20024;-85
2021/04/25 08:29:30;;;;;;;4.25;0.90;;;9.60;65.50;;;;;;5077078;28;20508;-86
2021/04/25 08:31:55;;;;;;;4.47;1.50;;;9.70;65.20;;;;;;5088577;28;20387;-85
2021/04/25 08:34:21;;;;;;;5.70;0.95;;;9.70;64.50;;;;;;5083986;28;20024;-85
2021/04/25 08:36:46;;;;;;;5.05;1.00;;;9.70;63.70;;;;;;5084061;28;20012;-86
2021/04/25 08:39:12;;;;;;;7.53;1.20;;;9.60;64.30;;;;;;5090628;28;20046;-86
2021/04/25 08:41:41;;;;;;;4.32;0.80;;;9.70;64.40;;;;;;5090187;28;20434;-84
2021/04/25 08:44:08;;;;;;;7.20;1.00;;;9.70;64.80;;;;;;5065638;28;20020;-86
2021/04/25 08:46:34;;;;;;;4.72;0.98;;;9.80;64.60;;;;;;5092292;28;20487;-86
2021/04/25 08:49:01;;;;;;;4.30;0.93;;;9.90;63.90;;;;;;5091874;28;20016;-89
2021/04/25 08:51:27;;;;;;;6.32;1.42;;;10.00;64.20;;;;;;5085842;28;20032;-86
2021/04/25 08:53:52;;;;;;;7.20;0.80;;;10.10;63.50;;;;;;5065952;28;20016;-86
2021/04/25 08:56:19;;;;;;;4.32;1.00;;;10.10;63.10;;;;;;5090879;28;20411;-87
2021/04/25 08:58:47;;;;;;;5.82;1.33;;;10.10;63.60;;;;;;5089681;28;20025;-87
2021/04/25 09:01:13;;;;;;;5.78;0.90;;;10.20;64.10;;;;;;5089147;28;20023;-85
2021/04/25 09:03:39;;;;;;;3.95;1.10;;;10.40;64.00;;;;;;5088207;28;20073;-85
2021/04/25 09:06:07;;;;;;;6.65;1.10;;;10.50;62.40;;;;;;5086076;28;20028;-85
2021/04/25 09:08:41;;;;;;;10.32;1.92;;;10.60;62.00;;;;;;5089106;28;20577;-88
2021/04/25 09:11:07;;;;;;;8.82;1.02;;;10.60;61.70;;;;;;5082523;28;20488;-85
2021/04/25 09:13:32;;;;;;;5.95;1.40;;;10.60;61.40;;;;;;5092460;28;20024;-87
2021/04/25 09:16:09;;;;;;;7.57;1.30;;;10.60;61.80;;;;;;5082928;28;20023;-88
2021/04/25 09:18:35;;;;;;;4.13;0.70;;;10.60;61.50;;;;;;5071020;28;20066;-85
2021/04/25 09:21:11;;;;;;;5.15;1.35;;;10.70;61.90;;;;;;5093646;28;20044;-86
2021/04/25 09:23:37;;;;;;;6.75;0.80;;;10.90;61.80;;;;;;5094339;28;20027;-85
2021/04/25 09:26:09;;;;;;;2.72;0.75;;;11.20;59.30;;;;;;5091464;28;20016;-86
2021/04/25 09:28:36;;;;;;;5.10;1.35;;;11.40;60.00;;;;;;5087622;28;20392;-87
2021/04/25 09:31:03;;;;;;;6.30;1.48;;;11.70;59.00;;;;;;5074521;28;20029;-86
2021/04/25 09:33:50;;;;;;;5.13;1.17;;;11.90;58.40;;;;;;5074232;28;20032;-87
2021/04/25 09:36:18;;;;;;;4.95;0.90;;;12.10;56.90;;;;;;5076465;28;20017;-86
2021/04/25 09:38:44;;;;;;;5.00;1.20;;;12.20;56.80;;;;;;5084794;28;20107;-89
2021/04/25 09:41:28;;;;;;;3.65;0.95;;;12.30;56.60;;;;;;5083442;28;20051;-88
2021/04/25 09:43:53;;;;;;;8.63;0.93;;;12.30;57.00;;;;;;5062950;28;20076;-86
2021/04/25 09:46:19;;;;;;;5.95;1.20;;;12.30;56.90;;;;;;5074396;28;20025;-88
2021/04/25 09:48:45;;;;;;;4.78;0.77;;;12.30;55.90;;;;;;5073815;28;20017;-87
2021/04/25 09:51:10;;;;;;;4.35;1.00;;;12.70;56.70;;;;;;5064632;28;20017;-88
2021/04/25 09:53:38;;;;;;;2.92;0.90;;;12.80;55.90;;;;;;5073650;28;20029;-87
2021/04/25 09:56:05;;;;;;;3.42;0.73;;;12.90;55.80;;;;;;5070138;28;20017;-85
2021/04/25 09:58:31;;;;;;;5.80;0.85;;;13.10;55.50;;;;;;5056748;28;20075;-87
2021/04/25 10:00:57;;;;;;;4.35;1.30;;;14.00;54.10;;;;;;5091833;28;20365;-86
2021/04/25 10:03:23;;;;;;;3.42;0.70;;;13.90;52.00;;;;;;5088233;28;20016;-87
2021/04/25 10:06:06;;;;;;;4.28;0.95;;;14.10;52.80;;;;;;5084461;28;20115;-87
2021/04/25 10:08:37;;;;;;;3.08;0.88;;;14.90;52.80;;;;;;5072689;28;20065;-87
2021/04/25 10:11:05;;;;;;;8.13;1.17;;;15.90;51.00;;;;;;5087909;28;20055;-86
2021/04/25 10:13:32;;;;;;;5.60;1.42;;;16.10;48.50;;;;;;5085598;28;20024;-87
2021/04/25 10:15:58;;;;;;;8.88;1.20;;;15.90;48.80;;;;;;5085245;28;20019;-85
2021/04/25 10:18:24;;;;;;;8.98;1.20;;;15.80;48.10;;;;;;5085623;28;20017;-86
2021/04/25 10:20:51;;;;;;;4.97;1.00;;;17.30;46.70;;;;;;5073729;28;20522;-86
2021/04/25 10:23:18;;;;;;;5.03;1.02;;;18.70;43.80;;;;;;5080599;28;20058;-87
2021/04/25 10:25:45;;;;;;;5.90;1.00;;;19.80;40.70;;;;;;5089059;28;20279;-88
2021/04/25 10:28:15;;;;;;;5.45;0.70;;;20.90;38.60;;;;;;5093819;28;20365;-87
2021/04/25 10:30:42;;;;;;;5.10;0.88;;;21.40;36.90;;;;;;5067812;28;20029;-89
2021/04/25 10:33:08;;;;;;;7.05;1.90;;;21.40;36.50;;;;;;5068696;28;20028;-89
2021/04/25 10:35:35;;;;;;;5.13;1.02;;;20.70;36.60;;;;;;5089283;28;20379;-86
2021/04/25 10:38:05;;;;;;;5.97;1.98;;;19.60;37.30;;;;;;5079873;28;20077;-87
2021/04/25 10:40:36;;;;;;;8.75;1.40;;;19.80;38.50;;;;;;5087625;28;20016;-89
2021/04/25 10:43:07;;;;;;;6.72;1.00;;;19.70;38.20;;;;;;5081296;28;20020;-87
2021/04/25 10:45:53;;;;;;;6.28;0.95;;;19.70;38.50;;;;;;5074918;28;20074;-87
2021/04/25 10:48:19;;;;;;;7.72;1.38;;;21.30;38.00;;;;;;5072569;28;20021;-86
2021/04/25 10:50:47;;;;;;;5.32;0.88;;;21.60;35.60;;;;;;5080840;28;20119;-86
2021/04/25 10:53:19;;;;;;;6.22;1.35;;;21.00;36.40;;;;;;5084922;28;20058;-86
2021/04/25 10:56:10;;;;;;;3.60;0.98;;;20.40;37.20;;;;;;5089641;28;20024;-88
2021/04/25 10:58:35;;;;;;;4.22;1.33;;;19.80;38.30;;;;;;5085431;28;20028;-88
2021/04/25 11:01:01;;;;;;;3.90;0.90;;;19.50;39.50;;;;;;5073984;28;20426;-88
2021/04/25 11:03:26;;;;;;;5.35;1.02;;;19.80;39.90;;;;;;5077209;28;20043;-86
2021/04/25 11:05:52;;;;;;;4.63;0.90;;;19.30;38.40;;;;;;5078405;28;20047;-87
2021/04/25 11:08:30;;;;;;;4.88;1.10;;;19.90;37.90;;;;;;5084863;28;20028;-87
2021/04/25 11:11:11;;;;;;;4.88;1.13;;;21.70;37.00;;;;;;5084173;28;20024;-86
2021/04/25 11:13:44;;;;;;;6.22;1.23;;;23.30;34.80;;;;;;5085434;28;20027;-87
2021/04/25 11:16:25;;;;;;;5.00;1.10;;;24.80;32.20;;;;;;5084411;28;20107;-86
2021/04/25 11:18:53;;;;;;;5.13;0.95;;;25.90;31.40;;;;;;5081759;28;20443;-87
2021/04/25 11:21:28;;;;;;;6.22;1.00;;;26.20;30.80;;;;;;5088644;28;20127;-86
2021/04/25 11:24:04;;;;;;;5.05;1.10;;;26.80;29.80;;;;;;5053135;28;20432;-87
2021/04/25 11:29:07;;;;;;;5.43;1.10;;;27.80;29.10;;;;;;5079736;28;20056;-86
2021/04/25 11:34:28;;;;;;;2.58;1.00;;;28.30;28.20;;;;;;5082921;28;20140;-87
2021/04/25 11:37:06;;;;;;;4.25;1.10;;;28.90;29.30;;;;;;5086711;28;20036;-85
2021/04/25 11:39:45;;;;;;;6.88;1.17;;;28.10;28.00;;;;;;5079720;28;20020;-86
2021/04/25 11:42:47;;;;;;;5.13;1.27;;;27.00;28.50;;;;;;5087590;28;20103;-84
2021/04/25 11:45:25;;;;;;;5.15;1.20;;;27.10;28.80;;;;;;5066159;28;20479;-86
2021/04/25 11:48:02;;;;;;;5.43;1.00;;;26.70;27.70;;;;;;5086477;28;20038;-85
2021/04/25 11:50:33;;;;;;;7.43;1.58;;;26.50;29.10;;;;;;5081590;28;20181;-86
2021/04/25 11:53:01;;;;;;;6.18;1.40;;;27.30;28.10;;;;;;5089568;28;20053;-85
2021/04/25 11:55:29;;;;;;;6.85;1.52;;;28.20;27.80;;;;;;5085377;28;20039;-83
2021/04/25 11:57:54;;;;;;;3.20;1.10;;;28.50;27.30;;;;;;5083011;28;20102;-85
2021/04/25 12:00:24;;;;;;;6.38;1.55;;;26.80;27.90;;;;;;5087412;28;20030;-86
2021/04/25 12:02:55;;;;;;;6.32;1.23;;;25.20;29.40;;;;;;5068128;28;20052;-86
2021/04/25 12:05:34;;;;;;;7.32;1.40;;;25.90;28.90;;;;;;5088428;28;20073;-84
2021/04/25 12:08:05;;;;;;;3.10;0.88;;;27.10;28.60;;;;;;5057791;28;20430;-84
2021/04/25 12:10:35;;;;;;;3.22;0.80;;;27.70;28.30;;;;;;5060628;28;20036;-84
2021/04/25 12:13:12;;;;;;;4.20;1.25;;;28.20;28.00;;;;;;5070383;28;20028;-84
2021/04/25 12:15:37;;;;;;;3.25;1.00;;;28.10;28.50;;;;;;5052183;28;20060;-85
2021/04/25 12:18:03;;;;;;;4.78;1.02;;;27.70;27.60;;;;;;5067508;28;20105;-86
2021/04/25 12:20:28;;;;;;;4.18;0.80;;;26.20;28.20;;;;;;5065025;28;20396;-86
2021/04/25 12:22:54;;;;;;;6.40;1.10;;;26.10;29.50;;;;;;5054154;28;20052;-86
2021/04/25 12:25:21;;;;;;;3.63;0.70;;;26.80;29.70;;;;;;5049110;28;20056;-84
2021/04/25 12:27:55;;;;;;;1.67;0.60;;;27.20;29.50;;;;;;5049384;28;20028;-87
2021/04/25 12:30:25;;;;;;;4.82;0.90;;;26.60;29.70;;;;;;5049535;28;20024;-87
2021/04/25 12:33:13;;;;;;;3.15;1.10;;;26.10;29.60;;;;;;5065763;28;20032;-88
2021/04/25 12:35:47;;;;;;;9.38;1.30;;;25.50;29.70;;;;;;5063049;28;20053;-87
2021/04/25 12:38:19;;;;;;;4.22;1.20;;;25.70;29.20;;;;;;5045391;28;20013;-88
2021/04/25 12:40:56;;;;;;;5.18;1.08;;;26.60;28.70;;;;;;5065534;28;20044;-87
2021/04/25 12:43:22;;;;;;;3.63;0.93;;;27.20;28.70;;;;;;5070394;28;20103;-86
2021/04/25 12:45:49;;;;;;;3.80;1.10;;;27.60;28.70;;;;;;5061216;28;20026;-86
2021/04/25 12:48:35;;;;;;;3.38;1.35;;;27.20;28.10;;;;;;5049084;28;20395;-85
2021/04/25 12:51:08;;;;;;;4.13;1.08;;;27.20;28.50;;;;;;5063421;28;20024;-86
2021/04/25 12:53:41;;;;;;;6.00;1.55;;;27.90;28.90;;;;;;5053727;28;20028;-84
2021/04/25 12:56:24;;;;;;;4.28;1.27;;;27.90;27.50;;;;;;5063224;28;20015;-87
2021/04/25 12:59:18;;;;;;;2.40;1.00;;;27.90;27.60;;;;;;5053728;28;20067;-86